sensor_id;sensor_type;location;lat;lon;timestamp;pressure;altitude;pressure_sealevel;temperature;humidity
19736;BME280;32064;49.310;8.646;2023-02-22T00:00:58;100451.28;;;8.86;64.52
19736;BME280;32064;49.310;8.646;2023-02-22T00:03:32;100451.28;;;8.86;63.96
19736;BME280;32064;49.310;8.646;2023-02-22T00:06:02;100444.34;;;8.85;63.95
19736;BME280;32064;49.310;8.646;2023-02-22T00:08:31;100449.38;;;8.88;64.32
19736;BME280;32064;49.310;8.646;2023-02-22T00:11:01;100448.47;;;8.89;64.02
19736;BME280;32064;49.310;8.646;2023-02-22T00:13:28;100444.81;;;8.92;64.44
19736;BME280;32064;49.310;8.646;2023-02-22T00:15:57;100433.00;;;8.85;66.08
19736;BME280;32064;49.310;8.646;2023-02-22T00:18:23;100432.25;;;8.83;67.87
19736;BME280;32064;49.310;8.646;2023-02-22T00:20:52;100437.78;;;8.92;68.34
19736;BME280;32064;49.310;8.646;2023-02-22T00:23:20;100429.06;;;8.92;69.30
19736;BME280;32064;49.310;8.646;2023-02-22T00:25:49;100429.31;;;9.02;68.91
19736;BME280;32064;49.310;8.646;2023-02-22T00:28:18;100427.34;;;9.05;69.70
19736;BME280;32064;49.310;8.646;2023-02-22T00:30:44;100421.53;;;9.14;68.85
19736;BME280;32064;49.310;8.646;2023-02-22T00:33:14;100419.94;;;9.12;69.76
19736;BME280;32064;49.310;8.646;2023-02-22T00:35:40;100411.94;;;9.13;70.07
19736;BME280;32064;49.310;8.646;2023-02-22T00:38:10;100404.91;;;9.14;69.64
19736;BME280;32064;49.310;8.646;2023-02-22T00:40:36;100406.31;;;9.19;69.86
19736;BME280;32064;49.310;8.646;2023-02-22T00:43:03;100400.03;;;9.22;70.45
19736;BME280;32064;49.310;8.646;2023-02-22T00:45:31;100398.34;;;9.21;70.82
19736;BME280;32064;49.310;8.646;2023-02-22T00:47:57;100399.63;;;9.28;69.83
19736;BME280;32064;49.310;8.646;2023-02-22T00:50:24;100396.28;;;9.26;70.76
19736;BME280;32064;49.310;8.646;2023-02-22T00:52:51;100399.41;;;9.31;70.67
19736;BME280;32064;49.310;8.646;2023-02-22T00:55:20;100399.63;;;9.28;71.44
19736;BME280;32064;49.310;8.646;2023-02-22T00:57:46;100394.06;;;9.33;70.32
19736;BME280;32064;49.310;8.646;2023-02-22T01:00:23;100394.06;;;9.33;70.74
19736;BME280;32064;49.310;8.646;2023-02-22T01:02:50;100397.13;;;9.39;70.44
19736;BME280;32064;49.310;8.646;2023-02-22T01:05:19;100391.16;;;9.37;70.34
19736;BME280;32064;49.310;8.646;2023-02-22T01:07:46;100394.72;;;9.36;70.92
19736;BME280;32064;49.310;8.646;2023-02-22T01:10:12;100400.44;;;9.43;70.25
19736;BME280;32064;49.310;8.646;2023-02-22T01:12:38;100388.00;;;9.45;70.04
19736;BME280;32064;49.310;8.646;2023-02-22T01:15:06;100384.25;;;9.49;69.56
19736;BME280;32064;49.310;8.646;2023-02-22T01:17:35;100389.59;;;9.48;69.82
19736;BME280;32064;49.310;8.646;2023-02-22T01:20:00;100385.94;;;9.50;69.78
19736;BME280;32064;49.310;8.646;2023-02-22T01:22:26;100383.22;;;9.52;69.59
19736;BME280;32064;49.310;8.646;2023-02-22T01:24:52;100376.88;;;9.41;70.51
19736;BME280;32064;49.310;8.646;2023-02-22T01:27:21;100387.72;;;9.50;70.72
19736;BME280;32064;49.310;8.646;2023-02-22T01:29:48;100378.06;;;9.50;70.07
19736;BME280;32064;49.310;8.646;2023-02-22T01:32:14;100370.94;;;9.52;69.74
19736;BME280;32064;49.310;8.646;2023-02-22T01:34:40;100380.81;;;9.49;69.67
19736;BME280;32064;49.310;8.646;2023-02-22T01:37:05;100378.25;;;9.47;70.58
19736;BME280;32064;49.310;8.646;2023-02-22T01:39:31;100381.63;;;9.49;69.28
19736;BME280;32064;49.310;8.646;2023-02-22T01:41:57;100379.31;;;9.44;69.32
19736;BME280;32064;49.310;8.646;2023-02-22T01:44:30;100369.28;;;9.37;68.84
19736;BME280;32064;49.310;8.646;2023-02-22T01:46:58;100370.16;;;9.37;68.95
19736;BME280;32064;49.310;8.646;2023-02-22T01:49:26;100372.66;;;9.26;68.99
19736;BME280;32064;49.310;8.646;2023-02-22T01:51:55;100369.34;;;9.22;68.33
19736;BME280;32064;49.310;8.646;2023-02-22T01:54:29;100370.72;;;9.15;68.53
19736;BME280;32064;49.310;8.646;2023-02-22T01:56:59;100366.69;;;9.10;67.92
19736;BME280;32064;49.310;8.646;2023-02-22T01:59:28;100362.78;;;9.03;67.83
19736;BME280;32064;49.310;8.646;2023-02-22T02:01:58;100368.13;;;9.01;67.64
19736;BME280;32064;49.310;8.646;2023-02-22T02:04:24;100359.78;;;8.94;68.14
19736;BME280;32064;49.310;8.646;2023-02-22T02:06:56;100363.56;;;8.90;67.47
19736;BME280;32064;49.310;8.646;2023-02-22T02:09:26;100362.19;;;8.85;67.94
19736;BME280;32064;49.310;8.646;2023-02-22T02:11:57;100356.94;;;8.85;67.59
19736;BME280;32064;49.310;8.646;2023-02-22T02:14:25;100354.44;;;8.83;67.91
19736;BME280;32064;49.310;8.646;2023-02-22T02:16:52;100347.78;;;8.77;68.23
19736;BME280;32064;49.310;8.646;2023-02-22T02:19:59;100351.09;;;8.67;68.14
19736;BME280;32064;49.310;8.646;2023-02-22T02:22:46;100356.81;;;8.59;67.49
19736;BME280;32064;49.310;8.646;2023-02-22T02:31:38;100341.53;;;8.51;67.95
19736;BME280;32064;49.310;8.646;2023-02-22T02:39:29;100336.28;;;8.37;67.49
19736;BME280;32064;49.310;8.646;2023-02-22T02:42:02;100336.38;;;8.36;67.71
19736;BME280;32064;49.310;8.646;2023-02-22T02:44:53;100329.00;;;8.28;67.35
19736;BME280;32064;49.310;8.646;2023-02-22T02:47:27;100330.84;;;8.26;67.37
19736;BME280;32064;49.310;8.646;2023-02-22T02:50:13;100333.09;;;8.18;nan
19736;BME280;32064;49.310;8.646;2023-02-22T02:52:41;100331.34;;;8.18;67.16
19736;BME280;32064;49.310;8.646;2023-02-22T02:55:08;100338.66;;;8.13;66.63
19736;BME280;32064;49.310;8.646;2023-02-22T02:57:36;100329.28;;;8.09;66.84
19736;BME280;32064;49.310;8.646;2023-02-22T03:00:04;100330.47;;;8.03;67.04
19736;BME280;32064;49.310;8.646;2023-02-22T03:02:57;100327.41;;;7.97;67.11
19736;BME280;32064;49.310;8.646;2023-02-22T03:13:18;100330.00;;;7.82;67.60
19736;BME280;32064;49.310;8.646;2023-02-22T03:16:08;100331.31;;;7.75;67.12
19736;BME280;32064;49.310;8.646;2023-02-22T03:18:52;100324.56;;;7.71;67.55
19736;BME280;32064;49.310;8.646;2023-02-22T03:27:30;100329.53;;;7.61;67.57
19736;BME280;32064;49.310;8.646;2023-02-22T03:30:02;100321.75;;;7.60;67.77
19736;BME280;32064;49.310;8.646;2023-02-22T03:32:36;100319.50;;;7.54;67.77
19736;BME280;32064;49.310;8.646;2023-02-22T03:35:09;100316.66;;;7.42;67.38
19736;BME280;32064;49.310;8.646;2023-02-22T03:37:40;100323.31;;;7.48;67.96
19736;BME280;32064;49.310;8.646;2023-02-22T03:40:11;100320.53;;;7.51;67.30
19736;BME280;32064;49.310;8.646;2023-02-22T03:42:49;100317.31;;;7.46;67.18
19736;BME280;32064;49.310;8.646;2023-02-22T03:45:18;100308.16;;;7.39;68.74
19736;BME280;32064;49.310;8.646;2023-02-22T03:47:49;100316.75;;;7.41;67.79
19736;BME280;32064;49.310;8.646;2023-02-22T03:50:23;100316.75;;;7.41;68.71
19736;BME280;32064;49.310;8.646;2023-02-22T03:52:51;100323.94;;;7.37;68.32
19736;BME280;32064;49.310;8.646;2023-02-22T03:55:17;100319.47;;;7.39;68.87
19736;BME280;32064;49.310;8.646;2023-02-22T03:57:53;100315.16;;;7.38;68.89
19736;BME280;32064;49.310;8.646;2023-02-22T04:00:23;100311.16;;;7.47;67.95
19736;BME280;32064;49.310;8.646;2023-02-22T04:02:49;100311.44;;;7.42;67.86
19736;BME280;32064;49.310;8.646;2023-02-22T04:05:15;100313.88;;;7.46;67.80
19736;BME280;32064;49.310;8.646;2023-02-22T04:07:41;100308.06;;;7.40;68.09
19736;BME280;32064;49.310;8.646;2023-02-22T04:10:08;100309.91;;;7.38;67.85
19736;BME280;32064;49.310;8.646;2023-02-22T04:12:34;100312.72;;;7.35;68.95
19736;BME280;32064;49.310;8.646;2023-02-22T04:15:00;100316.00;;;7.39;67.89
19736;BME280;32064;49.310;8.646;2023-02-22T04:17:26;100322.91;;;7.40;68.63
19736;BME280;32064;49.310;8.646;2023-02-22T04:19:51;100319.72;;;7.35;68.81
19736;BME280;32064;49.310;8.646;2023-02-22T04:22:16;100329.25;;;7.36;68.20
19736;BME280;32064;49.310;8.646;2023-02-22T04:24:45;100323.00;;;7.38;68.54
19736;BME280;32064;49.310;8.646;2023-02-22T04:27:11;100318.88;;;7.34;68.93
19736;BME280;32064;49.310;8.646;2023-02-22T04:29:36;100321.50;;;7.34;68.03
19736;BME280;32064;49.310;8.646;2023-02-22T04:32:02;100328.41;;;7.35;68.77
19736;BME280;32064;49.310;8.646;2023-02-22T04:34:28;100319.66;;;7.36;69.21
19736;BME280;32064;49.310;8.646;2023-02-22T04:36:53;100324.94;;;7.35;68.92
19736;BME280;32064;49.310;8.646;2023-02-22T04:39:19;100327.69;;;7.33;68.91
19736;BME280;32064;49.310;8.646;2023-02-22T04:41:44;100324.13;;;7.34;68.73
19736;BME280;32064;49.310;8.646;2023-02-22T04:44:12;100327.81;;;7.30;68.90
19736;BME280;32064;49.310;8.646;2023-02-22T04:46:37;100325.50;;;7.26;68.64
19736;BME280;32064;49.310;8.646;2023-02-22T04:49:03;100326.06;;;7.31;68.38
19736;BME280;32064;49.310;8.646;2023-02-22T04:51:28;100314.75;;;7.30;68.35
19736;BME280;32064;49.310;8.646;2023-02-22T04:53:54;100312.31;;;7.27;68.68
19736;BME280;32064;49.310;8.646;2023-02-22T04:56:20;100312.22;;;7.29;68.26
19736;BME280;32064;49.310;8.646;2023-02-22T04:58:45;100307.84;;;7.29;69.43
19736;BME280;32064;49.310;8.646;2023-02-22T05:01:13;100305.97;;;7.31;69.36
19736;BME280;32064;49.310;8.646;2023-02-22T05:03:39;100310.63;;;7.26;68.73
19736;BME280;32064;49.310;8.646;2023-02-22T05:06:04;100314.56;;;7.19;69.72
19736;BME280;32064;49.310;8.646;2023-02-22T05:08:30;100307.63;;;7.18;68.78
19736;BME280;32064;49.310;8.646;2023-02-22T05:10:55;100312.00;;;7.17;68.95
19736;BME280;32064;49.310;8.646;2023-02-22T05:13:20;100322.47;;;7.17;68.88
19736;BME280;32064;49.310;8.646;2023-02-22T05:15:46;100316.75;;;7.11;68.92
19736;BME280;32064;49.310;8.646;2023-02-22T05:18:12;100308.72;;;7.14;69.47
19736;BME280;32064;49.310;8.646;2023-02-22T05:20:38;100310.66;;;7.10;69.14
19736;BME280;32064;49.310;8.646;2023-02-22T05:23:03;100314.66;;;7.02;68.62
19736;BME280;32064;49.310;8.646;2023-02-22T05:25:30;100311.28;;;7.00;68.92
19736;BME280;32064;49.310;8.646;2023-02-22T05:27:58;100300.84;;;7.00;68.68
19736;BME280;32064;49.310;8.646;2023-02-22T05:30:27;100304.28;;;7.00;68.51
19736;BME280;32064;49.310;8.646;2023-02-22T05:32:52;100302.69;;;6.97;68.92
19736;BME280;32064;49.310;8.646;2023-02-22T05:35:19;100298.03;;;7.03;69.45
19736;BME280;32064;49.310;8.646;2023-02-22T05:37:45;100302.69;;;6.97;68.52
19736;BME280;32064;49.310;8.646;2023-02-22T05:40:12;100299.91;;;7.01;69.33
19736;BME280;32064;49.310;8.646;2023-02-22T05:42:40;100298.13;;;7.01;68.45
19736;BME280;32064;49.310;8.646;2023-02-22T05:45:06;100300.25;;;6.94;68.28
19736;BME280;32064;49.310;8.646;2023-02-22T05:47:32;100296.78;;;6.94;68.45
19736;BME280;32064;49.310;8.646;2023-02-22T05:49:57;100299.22;;;6.97;69.96
19736;BME280;32064;49.310;8.646;2023-02-22T05:52:23;100305.78;;;7.04;70.01
19736;BME280;32064;49.310;8.646;2023-02-22T05:54:48;100296.91;;;7.07;68.95
19736;BME280;32064;49.310;8.646;2023-02-22T05:57:13;100297.75;;;7.07;70.89
19736;BME280;32064;49.310;8.646;2023-02-22T05:59:39;100288.72;;;7.13;71.06
19736;BME280;32064;49.310;8.646;2023-02-22T06:02:04;100290.25;;;7.17;72.86
19736;BME280;32064;49.310;8.646;2023-02-22T06:04:29;100291.56;;;7.24;72.20
19736;BME280;32064;49.310;8.646;2023-02-22T06:06:55;100291.31;;;7.29;71.23
19736;BME280;32064;49.310;8.646;2023-02-22T06:09:20;100295.50;;;7.31;71.68
19736;BME280;32064;49.310;8.646;2023-02-22T06:11:46;100296.44;;;7.30;70.88
19736;BME280;32064;49.310;8.646;2023-02-22T06:14:11;100287.56;;;7.33;72.99
19736;BME280;32064;49.310;8.646;2023-02-22T06:16:36;100301.41;;;7.35;71.64
19736;BME280;32064;49.310;8.646;2023-02-22T06:19:02;100294.31;;;7.37;71.88
19736;BME280;32064;49.310;8.646;2023-02-22T06:21:27;100301.88;;;7.41;73.04
19736;BME280;32064;49.310;8.646;2023-02-22T06:23:54;100293.78;;;7.46;73.23
19736;BME280;32064;49.310;8.646;2023-02-22T06:26:19;100298.06;;;7.47;74.09
19736;BME280;32064;49.310;8.646;2023-02-22T06:28:45;100300.41;;;7.52;73.43
19736;BME280;32064;49.310;8.646;2023-02-22T06:31:10;100302.00;;;7.54;74.77
19736;BME280;32064;49.310;8.646;2023-02-22T06:33:36;100314.66;;;7.62;74.39
19736;BME280;32064;49.310;8.646;2023-02-22T06:36:01;100307.53;;;7.64;75.32
19736;BME280;32064;49.310;8.646;2023-02-22T06:38:27;100316.72;;;7.71;74.58
19736;BME280;32064;49.310;8.646;2023-02-22T06:40:53;100321.78;;;7.74;74.54
19736;BME280;32064;49.310;8.646;2023-02-22T06:43:20;100321.69;;;7.76;74.91
19736;BME280;32064;49.310;8.646;2023-02-22T06:45:46;100332.63;;;7.82;74.99
19736;BME280;32064;49.310;8.646;2023-02-22T06:48:12;100334.13;;;7.86;75.44
19736;BME280;32064;49.310;8.646;2023-02-22T06:50:37;100328.53;;;7.93;75.06
19736;BME280;32064;49.310;8.646;2023-02-22T06:53:03;100334.63;;;7.93;74.55
19736;BME280;32064;49.310;8.646;2023-02-22T06:55:30;100336.75;;;8.01;75.12
19736;BME280;32064;49.310;8.646;2023-02-22T06:57:57;100342.47;;;8.07;74.85
19736;BME280;32064;49.310;8.646;2023-02-22T07:00:24;100339.66;;;8.10;74.97
19736;BME280;32064;49.310;8.646;2023-02-22T07:02:50;100341.66;;;8.21;74.74
19736;BME280;32064;49.310;8.646;2023-02-22T07:05:18;100348.00;;;8.31;74.30
19736;BME280;32064;49.310;8.646;2023-02-22T07:07:44;100348.00;;;8.46;74.66
19736;BME280;32064;49.310;8.646;2023-02-22T07:10:24;100343.78;;;8.72;73.37
19736;BME280;32064;49.310;8.646;2023-02-22T07:12:50;100346.19;;;9.02;71.66
19736;BME280;32064;49.310;8.646;2023-02-22T07:15:17;100354.22;;;9.13;72.83
19736;BME280;32064;49.310;8.646;2023-02-22T07:17:43;100360.19;;;9.42;71.53
19736;BME280;32064;49.310;8.646;2023-02-22T07:20:09;100362.50;;;9.34;71.73
19736;BME280;32064;49.310;8.646;2023-02-22T07:22:36;100355.00;;;9.28;71.52
19736;BME280;32064;49.310;8.646;2023-02-22T07:25:05;100358.03;;;9.22;72.10
19736;BME280;32064;49.310;8.646;2023-02-22T07:27:30;100357.78;;;9.12;72.62
19736;BME280;32064;49.310;8.646;2023-02-22T07:29:56;100353.09;;;9.17;71.85
19736;BME280;32064;49.310;8.646;2023-02-22T07:32:21;100354.47;;;9.23;73.01
19736;BME280;32064;49.310;8.646;2023-02-22T07:34:46;100350.34;;;9.19;72.82
19736;BME280;32064;49.310;8.646;2023-02-22T07:37:12;100351.94;;;9.21;72.69
19736;BME280;32064;49.310;8.646;2023-02-22T07:39:37;100354.91;;;9.30;71.75
19736;BME280;32064;49.310;8.646;2023-02-22T07:42:06;100352.31;;;9.42;71.40
19736;BME280;32064;49.310;8.646;2023-02-22T07:44:31;100361.16;;;9.54;71.78
19736;BME280;32064;49.310;8.646;2023-02-22T07:46:56;100355.09;;;9.66;71.82
19736;BME280;32064;49.310;8.646;2023-02-22T07:49:22;100351.09;;;9.74;72.24
19736;BME280;32064;49.310;8.646;2023-02-22T07:51:47;100353.13;;;9.83;70.60
19736;BME280;32064;49.310;8.646;2023-02-22T07:54:13;100351.75;;;9.90;71.38
19736;BME280;32064;49.310;8.646;2023-02-22T07:56:48;100343.44;;;9.96;70.85
19736;BME280;32064;49.310;8.646;2023-02-22T07:59:14;100349.53;;;10.09;70.26
19736;BME280;32064;49.310;8.646;2023-02-22T08:01:40;100343.63;;;10.19;71.32
19736;BME280;32064;49.310;8.646;2023-02-22T08:04:05;100342.81;;;10.18;70.68
19736;BME280;32064;49.310;8.646;2023-02-22T08:06:31;100350.28;;;10.37;70.37
19736;BME280;32064;49.310;8.646;2023-02-22T08:08:57;100343.38;;;10.36;70.91
19736;BME280;32064;49.310;8.646;2023-02-22T08:11:23;100347.97;;;10.45;71.29
19736;BME280;32064;49.310;8.646;2023-02-22T08:13:48;100346.50;;;10.78;68.75
19736;BME280;32064;49.310;8.646;2023-02-22T08:16:14;100347.03;;;11.66;67.43
19736;BME280;32064;49.310;8.646;2023-02-22T08:18:39;100346.75;;;12.61;65.99
19736;BME280;32064;49.310;8.646;2023-02-22T08:21:05;100339.09;;;12.24;66.22
19736;BME280;32064;49.310;8.646;2023-02-22T08:23:30;100346.28;;;12.11;64.97
19736;BME280;32064;49.310;8.646;2023-02-22T08:26:06;100340.16;;;12.10;64.99
19736;BME280;32064;49.310;8.646;2023-02-22T08:28:32;100345.09;;;12.15;66.53
19736;BME280;32064;49.310;8.646;2023-02-22T08:30:57;100340.16;;;12.33;65.97
19736;BME280;32064;49.310;8.646;2023-02-22T08:33:22;100342.53;;;12.58;65.42
19736;BME280;32064;49.310;8.646;2023-02-22T08:35:48;100347.84;;;13.02;63.37
19736;BME280;32064;49.310;8.646;2023-02-22T08:38:18;100341.13;;;13.83;61.52
19736;BME280;32064;49.310;8.646;2023-02-22T08:40:44;100342.63;;;14.58;59.62
19736;BME280;32064;49.310;8.646;2023-02-22T08:43:09;100344.97;;;15.31;57.19
19736;BME280;32064;49.310;8.646;2023-02-22T08:45:34;100344.94;;;15.89;56.82
19736;BME280;32064;49.310;8.646;2023-02-22T08:48:01;100351.38;;;16.24;55.41
19736;BME280;32064;49.310;8.646;2023-02-22T08:50:29;100345.81;;;16.55;53.58
19736;BME280;32064;49.310;8.646;2023-02-22T08:52:56;100336.50;;;16.04;55.37
19736;BME280;32064;49.310;8.646;2023-02-22T08:55:27;100345.78;;;15.61;54.72
19736;BME280;32064;49.310;8.646;2023-02-22T08:57:54;100346.63;;;14.93;56.40
19736;BME280;32064;49.310;8.646;2023-02-22T09:00:21;100345.56;;;14.34;57.20
19736;BME280;32064;49.310;8.646;2023-02-22T09:02:48;100343.25;;;14.10;57.40
19736;BME280;32064;49.310;8.646;2023-02-22T09:05:14;100344.69;;;13.93;57.94
19736;BME280;32064;49.310;8.646;2023-02-22T09:07:41;100347.16;;;13.85;56.67
19736;BME280;32064;49.310;8.646;2023-02-22T09:10:12;100347.97;;;13.86;57.07
19736;BME280;32064;49.310;8.646;2023-02-22T09:12:40;100342.84;;;13.84;58.38
19736;BME280;32064;49.310;8.646;2023-02-22T09:15:05;100339.47;;;13.82;58.14
19736;BME280;32064;49.310;8.646;2023-02-22T09:17:31;100340.63;;;13.68;57.73
19736;BME280;32064;49.310;8.646;2023-02-22T09:19:56;100337.47;;;13.75;58.52
19736;BME280;32064;49.310;8.646;2023-02-22T09:22:22;100341.22;;;13.72;57.98
19736;BME280;32064;49.310;8.646;2023-02-22T09:24:47;100339.59;;;13.81;58.42
19736;BME280;32064;49.310;8.646;2023-02-22T09:27:12;100335.50;;;13.98;57.65
19736;BME280;32064;49.310;8.646;2023-02-22T09:29:39;100334.75;;;14.07;57.88
19736;BME280;32064;49.310;8.646;2023-02-22T09:32:04;100332.22;;;14.05;57.27
19736;BME280;32064;49.310;8.646;2023-02-22T09:34:30;100330.13;;;14.09;56.95
19736;BME280;32064;49.310;8.646;2023-02-22T09:36:59;100335.75;;;14.15;56.57
19736;BME280;32064;49.310;8.646;2023-02-22T09:39:24;100323.53;;;14.24;57.71
19736;BME280;32064;49.310;8.646;2023-02-22T09:42:15;100321.47;;;14.37;56.61
19736;BME280;32064;49.310;8.646;2023-02-22T09:45:13;100325.56;;;15.01;54.91
19736;BME280;32064;49.310;8.646;2023-02-22T09:47:40;100321.00;;;15.99;54.62
19736;BME280;32064;49.310;8.646;2023-02-22T09:50:13;100310.25;;;16.66;53.26
19736;BME280;32064;49.310;8.646;2023-02-22T09:52:57;100309.63;;;16.81;50.50
19736;BME280;32064;49.310;8.646;2023-02-22T09:55:30;100307.28;;;16.96;53.24
19736;BME280;32064;49.310;8.646;2023-02-22T09:58:01;100308.19;;;17.05;51.70
19736;BME280;32064;49.310;8.646;2023-02-22T10:00:30;100305.31;;;17.16;50.95
19736;BME280;32064;49.310;8.646;2023-02-22T10:05:31;100308.75;;;17.53;50.89
19736;BME280;32064;49.310;8.646;2023-02-22T10:08:00;100303.59;;;17.51;50.45
19736;BME280;32064;49.310;8.646;2023-02-22T10:10:33;100303.41;;;17.97;48.85
19736;BME280;32064;49.310;8.646;2023-02-22T10:13:26;100291.69;;;18.15;46.65
19736;BME280;32064;49.310;8.646;2023-02-22T10:24:08;100295.63;;;18.80;46.46
19736;BME280;32064;49.310;8.646;2023-02-22T10:26:42;100296.66;;;19.20;46.94
19736;BME280;32064;49.310;8.646;2023-02-22T10:31:52;100288.41;;;20.42;43.92
19736;BME280;32064;49.310;8.646;2023-02-22T10:34:23;100291.84;;;21.14;43.71
19736;BME280;32064;49.310;8.646;2023-02-22T10:36:56;100290.63;;;22.07;41.84
19736;BME280;32064;49.310;8.646;2023-02-22T10:39:32;100295.00;;;22.74;40.84
19736;BME280;32064;49.310;8.646;2023-02-22T10:42:07;100281.88;;;23.00;40.08
19736;BME280;32064;49.310;8.646;2023-02-22T10:44:37;100284.97;;;23.19;40.31
19736;BME280;32064;49.310;8.646;2023-02-22T10:47:10;100284.28;;;23.38;39.55
19736;BME280;32064;49.310;8.646;2023-02-22T10:49:42;100286.75;;;23.33;39.56
19736;BME280;32064;49.310;8.646;2023-02-22T10:52:32;100286.13;;;23.59;39.42
19736;BME280;32064;49.310;8.646;2023-02-22T10:55:02;100288.66;;;23.67;39.62
19736;BME280;32064;49.310;8.646;2023-02-22T10:57:33;100283.84;;;23.35;38.48
19736;BME280;32064;49.310;8.646;2023-02-22T11:00:22;100278.03;;;23.09;38.44
19736;BME280;32064;49.310;8.646;2023-02-22T11:02:56;100274.63;;;23.44;38.50
19736;BME280;32064;49.310;8.646;2023-02-22T11:05:33;100280.78;;;23.38;39.46
19736;BME280;32064;49.310;8.646;2023-02-22T11:10:46;100262.19;;;23.92;37.83
19736;BME280;32064;49.310;8.646;2023-02-22T11:13:23;100270.41;;;23.84;37.15
19736;BME280;32064;49.310;8.646;2023-02-22T11:16:00;100279.84;;;23.73;37.46
19736;BME280;32064;49.310;8.646;2023-02-22T11:18:33;100268.53;;;23.57;38.33
19736;BME280;32064;49.310;8.646;2023-02-22T11:21:05;100271.03;;;23.58;38.10
19736;BME280;32064;49.310;8.646;2023-02-22T11:23:33;100265.53;;;24.01;38.75
19736;BME280;32064;49.310;8.646;2023-02-22T11:26:04;100263.28;;;24.05;38.56
19736;BME280;32064;49.310;8.646;2023-02-22T11:28:31;100257.25;;;24.44;38.12
19736;BME280;32064;49.310;8.646;2023-02-22T11:31:26;100245.69;;;24.57;36.07
19736;BME280;32064;49.310;8.646;2023-02-22T11:36:34;100243.56;;;25.34;35.17
19736;BME280;32064;49.310;8.646;2023-02-22T11:39:29;100241.84;;;25.52;34.53
19736;BME280;32064;49.310;8.646;2023-02-22T11:42:16;100232.09;;;25.85;35.48
19736;BME280;32064;49.310;8.646;2023-02-22T11:44:44;100226.06;;;26.34;36.24
19736;BME280;32064;49.310;8.646;2023-02-22T11:47:10;100235.19;;;26.78;36.40
19736;BME280;32064;49.310;8.646;2023-02-22T11:49:38;100223.91;;;26.88;35.70
19736;BME280;32064;49.310;8.646;2023-02-22T11:57:40;100217.09;;;26.47;33.44
19736;BME280;32064;49.310;8.646;2023-02-22T12:00:16;100211.97;;;26.71;35.72
19736;BME280;32064;49.310;8.646;2023-02-22T12:09:18;100210.63;;;26.48;33.50
19736;BME280;32064;49.310;8.646;2023-02-22T12:15:05;100193.34;;;26.62;33.85
19736;BME280;32064;49.310;8.646;2023-02-22T12:17:54;100188.84;;;26.50;34.57
19736;BME280;32064;49.310;8.646;2023-02-22T12:20:26;100194.69;;;26.40;35.08
19736;BME280;32064;49.310;8.646;2023-02-22T12:23:14;100184.06;;;26.13;34.21
19736;BME280;32064;49.310;8.646;2023-02-22T12:26:08;100181.41;;;26.00;34.60
19736;BME280;32064;49.310;8.646;2023-02-22T12:28:42;100178.13;;;25.91;34.97
19736;BME280;32064;49.310;8.646;2023-02-22T12:31:22;100183.91;;;26.02;34.78
19736;BME280;32064;49.310;8.646;2023-02-22T12:34:00;100181.03;;;25.96;35.16
19736;BME280;32064;49.310;8.646;2023-02-22T12:36:39;100183.88;;;26.08;35.70
19736;BME280;32064;49.310;8.646;2023-02-22T12:39:34;100182.66;;;25.97;35.54
19736;BME280;32064;49.310;8.646;2023-02-22T12:42:11;100177.22;;;26.04;35.90
19736;BME280;32064;49.310;8.646;2023-02-22T12:44:40;100176.94;;;26.26;35.58
19736;BME280;32064;49.310;8.646;2023-02-22T12:47:15;100174.47;;;26.17;35.60
19736;BME280;32064;49.310;8.646;2023-02-22T12:49:54;100174.28;;;26.19;35.07
19736;BME280;32064;49.310;8.646;2023-02-22T12:52:37;100175.34;;;26.11;35.52
19736;BME280;32064;49.310;8.646;2023-02-22T12:55:23;100175.16;;;26.13;35.53
19736;BME280;32064;49.310;8.646;2023-02-22T12:57:58;100169.66;;;26.26;35.27
19736;BME280;32064;49.310;8.646;2023-02-22T13:00:38;100165.94;;;26.20;34.49
19736;BME280;32064;49.310;8.646;2023-02-22T13:03:30;100164.63;;;25.98;35.31
19736;BME280;32064;49.310;8.646;2023-02-22T13:09:04;100161.97;;;25.78;35.63
19736;BME280;32064;49.310;8.646;2023-02-22T13:20:02;100156.13;;;24.83;36.43
19736;BME280;32064;49.310;8.646;2023-02-22T13:27:58;100147.28;;;23.66;37.46
19736;BME280;32064;49.310;8.646;2023-02-22T13:30:38;100156.66;;;23.42;36.95
19736;BME280;32064;49.310;8.646;2023-02-22T13:33:25;100144.97;;;23.22;37.93
19736;BME280;32064;49.310;8.646;2023-02-22T13:36:29;100158.19;;;22.74;38.02
19736;BME280;32064;49.310;8.646;2023-02-22T13:44:58;100139.66;;;21.63;39.23
19736;BME280;32064;49.310;8.646;2023-02-22T13:52:33;100140.41;;;21.57;38.92
19736;BME280;32064;49.310;8.646;2023-02-22T13:55:05;100130.38;;;21.36;39.45
19736;BME280;32064;49.310;8.646;2023-02-22T13:57:45;100133.88;;;21.22;40.78
19736;BME280;32064;49.310;8.646;2023-02-22T14:03:03;100131.19;;;21.07;40.95
19736;BME280;32064;49.310;8.646;2023-02-22T14:05:47;100134.53;;;21.09;40.56
19736;BME280;32064;49.310;8.646;2023-02-22T14:13:09;100140.84;;;20.78;41.58
19736;BME280;32064;49.310;8.646;2023-02-22T14:15:34;100134.72;;;20.70;41.17
19736;BME280;32064;49.310;8.646;2023-02-22T14:18:02;100130.28;;;20.62;42.08
19736;BME280;32064;49.310;8.646;2023-02-22T14:20:34;100126.56;;;20.63;40.82
19736;BME280;32064;49.310;8.646;2023-02-22T14:26:24;100127.75;;;20.37;41.00
19736;BME280;32064;49.310;8.646;2023-02-22T14:34:16;100118.22;;;20.12;40.81
19736;BME280;32064;49.310;8.646;2023-02-22T14:36:51;100115.59;;;20.04;41.71
19736;BME280;32064;49.310;8.646;2023-02-22T14:39:41;100112.84;;;19.89;42.20
19736;BME280;32064;49.310;8.646;2023-02-22T14:50:36;100118.88;;;19.43;42.16
19736;BME280;32064;49.310;8.646;2023-02-22T14:56:16;100114.94;;;19.23;43.92
19736;BME280;32064;49.310;8.646;2023-02-22T14:58:57;100115.09;;;19.21;44.03
19736;BME280;32064;49.310;8.646;2023-02-22T15:03:55;100121.31;;;19.05;44.36
19736;BME280;32064;49.310;8.646;2023-02-22T15:06:27;100115.66;;;19.00;43.78
19736;BME280;32064;49.310;8.646;2023-02-22T15:09:17;100111.34;;;18.83;43.69